Time;durP1;ratioP1;P1;durP2;ratioP2;P2;SDS_P1;SDS_P2;PMS_P1;PMS_P2;Temp;Humidity;BMP_temperature;BMP_pressure;BME280_temperature;BME280_humidity;BME280_pressure;Samples;Min_cycle;Max_cycle;Signal;HPM_P1;HPM_P2
2021/05/21 00:01:43;;;;;;;8.52;4.20;;;;;;;8.48;80.65;99781.63;4976460;28;20049;-64
2021/05/21 00:04:11;;;;;;;5.82;3.70;;;;;;;8.37;81.50;99793.41;4976600;28;20531;-65
2021/05/21 00:06:40;;;;;;;6.65;4.10;;;;;;;8.31;80.81;99783.16;4976871;28;20054;-64
2021/05/21 00:09:12;;;;;;;7.72;4.65;;;;;;;8.37;81.16;99783.25;4976779;28;20125;-64
2021/05/21 00:11:40;;;;;;;6.28;4.32;;;;;;;8.49;80.67;99788.44;4976797;28;20470;-64
2021/05/21 00:14:09;;;;;;;8.80;4.57;;;;;;;8.59;81.32;99785.97;4976724;28;20046;-64
2021/05/21 00:16:38;;;;;;;9.60;4.38;;;;;;;8.73;81.48;99784.41;4976680;28;20133;-64
2021/05/21 00:19:07;;;;;;;8.35;4.65;;;;;;;8.90;81.61;99783.72;4976576;28;20047;-64
2021/05/21 00:21:36;;;;;;;9.55;4.80;;;;;;;8.99;80.78;99777.00;4959365;28;20105;-64
2021/05/21 00:24:05;;;;;;;7.32;4.55;;;;;;;9.02;80.85;99778.72;4976598;28;20051;-64
2021/05/21 00:26:34;;;;;;;6.28;3.80;;;;;;;8.85;81.19;99778.59;4976511;28;20085;-64
2021/05/21 00:29:03;;;;;;;7.50;4.33;;;;;;;8.75;80.32;99770.03;4976773;28;20385;-64
2021/05/21 00:31:32;;;;;;;5.05;3.22;;;;;;;8.83;79.98;99757.34;4976484;28;20070;-64
2021/05/21 00:34:13;;;;;;;7.20;4.05;;;;;;;8.78;79.80;99766.66;4976472;28;20059;-64
2021/05/21 00:36:41;;;;;;;7.28;4.32;;;;;;;8.57;80.27;99772.41;4976581;28;20059;-65
2021/05/21 00:39:10;;;;;;;7.65;4.55;;;;;;;8.47;80.20;99770.59;4976145;28;20110;-64
2021/05/21 00:41:38;;;;;;;6.75;4.40;;;;;;;8.66;80.04;99771.66;4976198;28;20535;-64
2021/05/21 00:44:07;;;;;;;10.65;4.43;;;;;;;8.57;80.55;99776.63;4976131;28;20042;-64
2021/05/21 00:46:36;;;;;;;7.63;4.20;;;;;;;8.51;79.79;99774.03;4976080;28;20051;-64
2021/05/21 00:49:04;;;;;;;9.27;4.10;;;;;;;8.45;79.72;99771.44;4976488;28;20043;-65
2021/05/21 00:51:34;;;;;;;7.07;3.80;;;;;;;8.35;79.84;99774.75;4975736;28;20082;-64
2021/05/21 00:54:03;;;;;;;5.22;3.58;;;;;;;8.37;80.52;99771.38;4975975;28;20058;-65
2021/05/21 00:56:33;;;;;;;6.90;3.58;;;;;;;8.24;79.76;99771.19;4974790;28;20138;-64
2021/05/21 00:59:01;;;;;;;6.28;3.60;;;;;;;8.25;80.46;99783.09;4958851;28;20497;-65
2021/05/21 01:01:31;;;;;;;7.15;4.00;;;;;;;8.03;80.22;99766.75;4975712;28;20133;-65
2021/05/21 01:04:00;;;;;;;7.63;4.25;;;;;;;8.21;80.60;99781.34;4976100;28;20047;-64
2021/05/21 01:06:28;;;;;;;6.18;3.90;;;;;;;8.25;80.75;99783.94;4976081;28;20389;-64
2021/05/21 01:08:58;;;;;;;7.15;3.65;;;;;;;8.23;80.75;99789.84;4975969;28;20094;-64
2021/05/21 01:11:27;;;;;;;7.18;4.38;;;;;;;8.18;81.26;99781.31;4975539;28;20078;-64
2021/05/21 01:14:01;;;;;;;6.10;3.92;;;;;;;8.23;81.00;99784.78;4975604;28;20505;-64
2021/05/21 01:16:30;;;;;;;6.90;3.90;;;;;;;8.16;81.14;99788.09;4975637;28;20039;-64
2021/05/21 01:19:04;;;;;;;7.35;4.25;;;;;;;8.21;80.66;99781.34;4975750;28;20053;-65
2021/05/21 01:21:35;;;;;;;6.85;4.00;;;;;;;8.16;81.58;99778.75;4975379;28;20058;-64
2021/05/21 01:24:06;;;;;;;5.85;3.60;;;;;;;8.13;81.60;99785.50;4975512;28;20058;-64
2021/05/21 01:26:35;;;;;;;5.72;3.50;;;;;;;8.24;81.64;99781.38;4975460;28;20082;-65
2021/05/21 01:29:05;;;;;;;5.57;3.55;;;;;;;8.28;81.36;99778.91;4975317;28;20043;-64
2021/05/21 01:31:35;;;;;;;7.13;3.72;;;;;;;8.35;80.76;99779.84;4975264;28;20066;-64
2021/05/21 01:34:03;;;;;;;6.28;3.90;;;;;;;8.26;81.12;99777.16;4975324;28;20054;-65
2021/05/21 01:36:33;;;;;;;6.30;3.95;;;;;;;8.15;80.30;99781.28;4975488;28;20049;-64
2021/05/21 01:39:06;;;;;;;7.65;3.75;;;;;;;8.13;80.66;99777.88;4975525;28;20054;-65
2021/05/21 01:41:36;;;;;;;6.72;3.97;;;;;;;8.01;80.04;99783.69;4975131;28;20055;-65
2021/05/21 01:44:07;;;;;;;5.43;3.33;;;;;;;7.93;80.50;99781.06;4975420;28;20066;-64
2021/05/21 01:46:36;;;;;;;6.50;3.40;;;;;;;7.82;80.41;99769.91;4975180;28;20055;-64
2021/05/21 01:49:05;;;;;;;;;;;;;;;7.79;80.55;99777.50;4975719;28;20090;-64
2021/05/21 01:51:50;;;;;;;6.55;3.72;;;;;;;7.91;80.51;99764.94;4974789;28;20447;-64
2021/05/21 01:54:19;;;;;;;7.47;3.90;;;;;;;7.95;80.36;99764.13;4975304;28;20070;-64
2021/05/21 01:56:51;;;;;;;6.15;3.90;;;;;;;7.82;80.73;99767.34;4975180;28;20053;-65
2021/05/21 01:59:20;;;;;;;6.65;3.75;;;;;;;7.68;80.73;99762.97;4974932;28;20504;-64
2021/05/21 02:01:49;;;;;;;6.03;3.90;;;;;;;7.57;80.51;99765.38;4975116;28;20046;-64
2021/05/21 02:04:27;;;;;;;5.53;3.55;;;;;;;7.47;80.78;99763.53;4974889;28;20102;-64
2021/05/21 02:06:57;;;;;;;6.40;3.87;;;;;;;7.51;80.73;99761.91;4974910;28;20519;-65
2021/05/21 02:09:26;;;;;;;6.00;3.78;;;;;;;7.39;81.04;99760.03;4974753;28;20776;-64
2021/05/21 02:11:55;;;;;;;7.97;4.18;;;;;;;7.38;81.37;99764.28;4974728;28;20082;-64
2021/05/21 02:14:23;;;;;;;6.93;3.83;;;;;;;7.48;81.58;99762.72;4974889;28;20510;-64
2021/05/21 02:16:52;;;;;;;5.47;3.40;;;;;;;7.48;81.31;99759.31;4975036;28;20043;-64
2021/05/21 02:19:21;;;;;;;5.40;3.23;;;;;;;7.38;81.67;99773.59;4974719;28;20400;-64
2021/05/21 02:21:50;;;;;;;6.88;3.97;;;;;;;7.34;81.81;99764.22;4974635;28;20325;-65
2021/05/21 02:24:20;;;;;;;7.32;4.10;;;;;;;7.32;81.39;99769.28;4974940;28;20512;-65
2021/05/21 02:26:48;;;;;;;4.85;3.58;;;;;;;7.25;81.24;99771.69;4977725;28;20071;-64
2021/05/21 02:29:17;;;;;;;7.00;4.45;;;;;;;7.18;81.75;99772.44;4978837;28;20043;-64
2021/05/21 02:31:46;;;;;;;3.88;2.85;;;;;;;7.09;82.02;99774.84;4978683;28;20053;-64
2021/05/21 02:34:15;;;;;;;6.13;3.90;;;;;;;7.05;82.19;99768.03;4978740;28;20074;-64
2021/05/21 02:36:43;;;;;;;6.38;3.92;;;;;;;6.98;82.22;99768.78;4978539;28;20544;-64
2021/05/21 02:39:12;;;;;;;5.90;3.78;;;;;;;7.07;82.48;99776.53;4978474;28;20047;-64
2021/05/21 02:41:42;;;;;;;8.05;3.92;;;;;;;7.05;81.99;99773.97;4978465;28;20513;-66
2021/05/21 02:44:10;;;;;;;7.60;3.70;;;;;;;7.05;82.10;99768.03;4978399;28;20054;-65
2021/05/21 02:46:39;;;;;;;5.80;3.42;;;;;;;7.02;82.33;99768.84;4978358;28;20054;-64
2021/05/21 02:49:07;;;;;;;5.47;3.20;;;;;;;7.04;82.47;99772.25;4978235;28;20039;-65
2021/05/21 02:51:36;;;;;;;5.47;3.53;;;;;;;7.09;82.18;99773.19;4978110;28;20054;-64
2021/05/21 02:54:05;;;;;;;4.97;3.28;;;;;;;7.27;82.85;99772.59;4978205;28;20070;-64
2021/05/21 02:56:34;;;;;;;5.35;3.17;;;;;;;7.39;82.38;99770.19;4979013;28;20133;-64
2021/05/21 02:59:04;;;;;;;5.95;3.28;;;;;;;7.35;82.33;99769.31;4978124;28;20043;-64
2021/05/21 03:01:32;;;;;;;6.15;3.63;;;;;;;7.33;81.71;99762.50;4978104;28;20479;-65
2021/05/21 03:04:01;;;;;;;4.93;2.95;;;;;;;7.10;81.61;99756.28;4978055;28;20078;-64
2021/05/21 03:06:30;;;;;;;7.35;3.83;;;;;;;7.02;82.21;99762.91;4978024;28;20069;-64
2021/05/21 03:08:59;;;;;;;5.30;3.47;;;;;;;7.05;82.07;99760.44;4977949;28;20057;-64
2021/05/21 03:11:27;;;;;;;5.35;2.97;;;;;;;6.95;82.24;99756.06;4977836;28;20043;-65
2021/05/21 03:13:56;;;;;;;5.68;3.53;;;;;;;6.97;81.95;99752.69;4978156;28;20047;-64
2021/05/21 03:16:25;;;;;;;6.88;3.45;;;;;;;7.09;82.04;99754.56;4977689;28;20042;-64
2021/05/21 03:18:54;;;;;;;6.10;3.78;;;;;;;7.06;81.99;99751.97;4977948;28;20047;-65
2021/05/21 03:21:22;;;;;;;6.18;3.97;;;;;;;7.02;82.24;99752.78;4978023;28;20137;-64
2021/05/21 03:23:51;;;;;;;9.23;3.72;;;;;;;7.00;82.09;99759.50;4977636;28;20127;-64
2021/05/21 03:26:20;;;;;;;4.60;2.97;;;;;;;6.95;82.39;99756.06;4977577;28;20042;-65
2021/05/21 03:28:48;;;;;;;6.03;3.95;;;;;;;6.99;82.34;99757.78;4977607;28;20054;-64
2021/05/21 03:31:18;;;;;;;11.13;5.82;;;;;;;7.17;82.69;99755.53;4977193;28;20097;-65
2021/05/21 03:33:47;;;;;;;;;;;;;;;7.36;82.46;99765.09;4977775;28;20046;-64
2021/05/21 03:36:16;;;;;;;6.83;4.00;;;;;;;7.52;82.16;99756.84;4977445;28;20373;-64
2021/05/21 03:38:44;;;;;;;6.43;3.85;;;;;;;7.54;82.12;99757.72;4976461;28;20046;-64
2021/05/21 03:41:13;;;;;;;7.60;3.90;;;;;;;7.57;82.19;99764.50;4977334;28;20074;-64
2021/05/21 03:43:41;;;;;;;9.32;4.72;;;;;;;7.62;82.25;99773.91;4977439;28;20066;-64
2021/05/21 03:46:10;;;;;;;6.07;4.03;;;;;;;7.70;82.25;99777.38;4977275;28;20125;-64
2021/05/21 03:48:38;;;;;;;7.20;4.05;;;;;;;7.92;81.95;99774.25;4977227;28;20130;-64
2021/05/21 03:51:08;;;;;;;6.97;4.30;;;;;;;8.07;82.14;99774.44;4976929;28;20043;-64
2021/05/21 03:53:37;;;;;;;9.35;3.95;;;;;;;8.19;81.71;99772.84;4977204;28;20461;-64
2021/05/21 03:56:06;;;;;;;8.73;4.63;;;;;;;8.28;81.38;99767.91;4977004;28;20383;-64
2021/05/21 03:58:35;;;;;;;6.53;4.10;;;;;;;8.42;81.39;99762.09;4977027;28;20069;-64
2021/05/21 04:01:04;;;;;;;5.63;3.70;;;;;;;8.42;79.98;99757.00;4977021;28;20055;-65
2021/05/21 04:03:32;;;;;;;6.68;3.65;;;;;;;8.45;80.87;99758.72;4976888;28;20493;-65
2021/05/21 04:06:01;;;;;;;5.85;3.78;;;;;;;8.56;80.38;99754.59;4975579;28;20049;-65
2021/05/21 04:08:31;;;;;;;6.85;4.05;;;;;;;8.68;79.93;99749.59;4976802;28;20046;-65
2021/05/21 04:11:00;;;;;;;5.88;3.38;;;;;;;8.72;79.32;99751.31;4976822;28;20071;-65
2021/05/21 04:13:29;;;;;;;7.50;3.75;;;;;;;8.70;79.55;99751.31;4977009;28;20058;-64
2021/05/21 04:15:57;;;;;;;6.65;3.60;;;;;;;8.75;78.89;99746.28;4976604;28;20564;-64
2021/05/21 04:18:26;;;;;;;6.15;3.70;;;;;;;8.86;79.42;99743.78;4976990;28;20046;-64
2021/05/21 04:20:54;;;;;;;8.75;4.15;;;;;;;9.01;79.40;99749.84;4976668;28;20130;-64
2021/05/21 04:23:23;;;;;;;5.63;3.55;;;;;;;9.16;78.85;99749.09;4976538;28;20051;-63
2021/05/21 04:25:52;;;;;;;5.55;3.67;;;;;;;9.29;78.57;99751.69;4976124;28;20049;-64
2021/05/21 04:28:21;;;;;;;9.93;3.92;;;;;;;9.42;77.46;99748.41;4976405;28;20051;-65
2021/05/21 04:30:51;;;;;;;6.72;3.70;;;;;;;9.60;77.32;99746.78;4976134;28;20042;-63
2021/05/21 04:33:20;;;;;;;;;;;;;;;9.75;77.34;99749.38;4976709;28;20477;-63
2021/05/21 04:35:48;;;;;;;8.38;4.75;;;;;;;10.04;77.00;99750.31;4976494;28;19928;-63
2021/05/21 04:38:16;;;;;;;8.43;4.15;;;;;;;10.33;76.51;99753.81;4976225;28;20489;-64
2021/05/21 04:40:45;;;;;;;7.70;4.00;;;;;;;10.50;75.81;99762.34;4976190;28;20054;-64
2021/05/21 04:43:14;;;;;;;7.05;3.80;;;;;;;10.58;75.20;99760.63;4976048;28;20043;-64
2021/05/21 04:45:43;;;;;;;6.55;3.85;;;;;;;10.72;74.89;99751.25;4976052;28;20098;-63
2021/05/21 04:48:12;;;;;;;8.68;4.22;;;;;;;10.80;74.57;99755.53;4975702;28;20078;-64
2021/05/21 04:50:45;;;;;;;6.80;3.70;;;;;;;10.92;74.21;99751.25;4976049;28;20050;-63
2021/05/21 04:53:14;;;;;;;6.47;3.90;;;;;;;11.01;73.26;99750.41;4976041;28;20438;-64
2021/05/21 04:55:43;;;;;;;4.40;2.73;;;;;;;11.05;72.81;99742.72;4975792;28;20047;-64
2021/05/21 04:58:11;;;;;;;5.63;3.80;;;;;;;11.14;72.68;99736.72;4975801;28;20046;-64
2021/05/21 05:00:41;;;;;;;6.07;3.33;;;;;;;11.31;72.32;99745.22;4975835;28;20121;-64
2021/05/21 05:03:10;;;;;;;5.53;3.63;;;;;;;11.53;72.08;99736.63;4975843;28;20059;-63
2021/05/21 05:05:39;;;;;;;6.35;3.40;;;;;;;11.68;71.59;99745.97;4975822;28;20131;-64
2021/05/21 05:08:09;;;;;;;6.77;4.07;;;;;;;11.72;71.21;99747.66;4975698;28;20050;-63
2021/05/21 05:10:38;;;;;;;7.68;3.88;;;;;;;11.79;71.21;99750.19;4975709;28;20070;-62
2021/05/21 05:13:07;;;;;;;8.43;4.07;;;;;;;12.00;70.95;99750.06;4975659;28;20081;-63
2021/05/21 05:15:36;;;;;;;5.63;3.50;;;;;;;12.01;70.56;99746.66;4975654;28;20082;-63
2021/05/21 05:18:06;;;;;;;5.25;3.15;;;;;;;11.99;70.10;99752.66;4975820;28;20053;-64
2021/05/21 05:20:34;;;;;;;;;;;;;;;11.99;70.25;99753.50;4976165;28;20050;-64
2021/05/21 05:23:03;;;;;;;6.57;3.78;;;;;;;12.00;69.95;99755.19;4975428;28;19926;-64
2021/05/21 05:25:31;;;;;;;7.03;3.25;;;;;;;12.04;70.09;99761.16;4975621;28;20043;-64
2021/05/21 05:28:00;;;;;;;5.10;3.53;;;;;;;12.13;69.74;99755.13;4975283;28;20050;-63
2021/05/21 05:30:29;;;;;;;6.00;3.55;;;;;;;12.17;69.57;99746.56;4975509;28;20070;-62
2021/05/21 05:32:57;;;;;;;7.30;4.05;;;;;;;12.19;69.75;99735.47;4975566;28;20047;-63
2021/05/21 05:35:26;;;;;;;6.18;3.53;;;;;;;12.36;69.63;99722.53;4975230;28;20078;-62
2021/05/21 05:37:55;;;;;;;6.40;4.00;;;;;;;12.53;69.48;99725.84;4975099;28;20054;-62
2021/05/21 05:40:24;;;;;;;6.57;3.72;;;;;;;12.62;69.34;99706.13;4975253;28;20050;-62
2021/05/21 05:42:52;;;;;;;6.88;3.70;;;;;;;12.68;68.88;99711.19;4975150;28;20142;-63
2021/05/21 05:45:21;;;;;;;9.15;3.42;;;;;;;12.76;68.89;99718.81;4975578;28;20441;-63
2021/05/21 05:47:49;;;;;;;5.45;3.80;;;;;;;12.82;68.54;99726.44;4974954;28;20046;-62
2021/05/21 05:50:18;;;;;;;6.72;3.95;;;;;;;12.83;68.47;99720.47;4974940;28;20038;-62
2021/05/21 05:52:47;;;;;;;7.03;3.60;;;;;;;12.97;68.40;99722.88;4974980;28;20130;-63
2021/05/21 05:55:16;;;;;;;5.88;3.33;;;;;;;13.06;68.03;99718.56;4975009;28;20083;-62
2021/05/21 05:57:44;;;;;;;6.68;3.78;;;;;;;13.17;68.22;99716.72;4974887;28;20397;-63
2021/05/21 06:00:14;;;;;;;16.33;5.03;;;;;;;13.26;67.31;99721.75;4974223;28;20039;-64
2021/05/21 06:02:42;;;;;;;9.27;4.78;;;;;;;13.37;67.74;99714.78;4975220;28;20101;-62
2021/05/21 06:05:11;;;;;;;5.40;3.33;;;;;;;13.60;67.22;99718.81;4975718;28;20446;-62
2021/05/21 06:07:40;;;;;;;6.57;3.78;;;;;;;13.71;66.78;99714.38;4975169;28;20043;-63
2021/05/21 06:10:11;;;;;;;7.25;3.78;;;;;;;13.89;66.37;99709.03;4974720;28;20041;-63
2021/05/21 06:12:40;;;;;;;8.40;3.20;;;;;;;13.92;66.67;99716.66;4974983;28;20458;-63
2021/05/21 06:15:10;;;;;;;7.38;3.72;;;;;;;14.15;66.56;99722.34;4974669;28;20493;-64
2021/05/21 06:17:38;;;;;;;8.38;4.03;;;;;;;14.36;66.39;99716.91;4974680;28;20050;-63
2021/05/21 06:20:08;;;;;;;5.50;3.67;;;;;;;14.46;65.41;99712.47;4974551;28;20071;-64
2021/05/21 06:22:37;;;;;;;6.15;3.67;;;;;;;14.50;64.97;99709.81;4974724;28;20059;-63
2021/05/21 06:25:09;;;;;;;7.20;3.50;;;;;;;14.42;65.26;99706.53;4974917;28;20429;-62
2021/05/21 06:27:39;;;;;;;5.88;3.85;;;;;;;14.55;65.81;99702.91;4974528;28;20097;-62
2021/05/21 06:30:09;;;;;;;;;;;;;;;14.86;65.23;99704.94;4974969;28;20050;-62
2021/05/21 06:32:38;;;;;;;5.50;3.75;;;;;;;14.90;65.17;99704.03;4974575;28;19961;-62
2021/05/21 06:35:08;;;;;;;6.85;3.60;;;;;;;15.02;64.42;99708.94;4974809;28;20050;-64
2021/05/21 06:37:36;;;;;;;;;;;;;;;15.02;63.97;99708.94;4974954;28;20449;-63
2021/05/21 06:40:11;;;;;;;7.15;3.67;;;;;;;15.14;64.21;99708.72;4974492;28;20272;-63
2021/05/21 06:42:40;;;;;;;8.00;4.03;;;;;;;15.28;63.18;99712.69;4974488;28;20110;-63
2021/05/21 06:45:10;;;;;;;5.40;3.25;;;;;;;15.49;62.75;99706.34;4974661;28;20055;-64
2021/05/21 06:47:38;;;;;;;6.57;3.88;;;;;;;15.69;62.95;99699.03;4973574;28;20039;-62
2021/05/21 06:50:08;;;;;;;5.78;3.65;;;;;;;15.78;62.64;99686.00;4974623;28;20576;-64
2021/05/21 06:52:37;;;;;;;5.32;3.80;;;;;;;15.76;62.63;99680.03;4973985;28;20138;-63
2021/05/21 06:55:07;;;;;;;5.88;3.85;;;;;;;15.78;62.51;99673.13;4974610;28;20086;-64
2021/05/21 06:57:35;;;;;;;;;;;;;;;15.74;61.80;99675.81;4974727;28;20134;-64
2021/05/21 07:00:06;;;;;;;4.32;3.10;;;;;;;15.67;61.80;99680.22;4974761;28;20393;-63
2021/05/21 07:02:35;;;;;;;5.15;3.03;;;;;;;15.60;61.81;99668.38;4974664;28;20070;-62
2021/05/21 07:05:05;;;;;;;5.93;3.33;;;;;;;15.75;61.66;99669.75;4974392;28;20047;-64
2021/05/21 07:07:33;;;;;;;5.13;3.50;;;;;;;15.96;61.65;99667.56;4974333;28;20441;-62
2021/05/21 07:10:02;;;;;;;5.30;3.83;;;;;;;16.15;61.23;99667.16;4973199;28;20039;-62
2021/05/21 07:12:30;;;;;;;7.45;4.53;;;;;;;16.27;60.60;99656.56;4976392;28;20055;-64
2021/05/21 07:14:59;;;;;;;7.03;4.22;;;;;;;16.36;61.16;99666.63;4977896;28;20082;-64
2021/05/21 07:17:29;;;;;;;6.75;3.97;;;;;;;16.29;61.52;99660.75;4977728;28;20074;-64
2021/05/21 07:19:58;;;;;;;6.10;4.10;;;;;;;16.23;61.82;99666.06;4977768;28;20556;-62
2021/05/21 07:22:26;;;;;;;5.60;3.55;;;;;;;16.19;62.23;99655.88;4977593;28;20051;-63
2021/05/21 07:24:55;;;;;;;5.47;3.67;;;;;;;16.50;62.20;99649.09;4977650;28;20453;-63
2021/05/21 07:27:24;;;;;;;6.45;4.40;;;;;;;16.75;61.54;99647.59;4977671;28;20050;-64
2021/05/21 07:29:52;;;;;;;6.13;4.18;;;;;;;16.72;61.65;99655.44;4977449;28;20057;-64
2021/05/21 07:32:21;;;;;;;6.43;4.00;;;;;;;16.95;61.79;99649.66;4977763;28;20047;-64
2021/05/21 07:34:51;;;;;;;;;;;;;;;16.86;61.61;99648.19;4978121;28;20055;-63
2021/05/21 07:37:20;;;;;;;5.95;4.10;;;;;;;16.88;60.44;99642.97;4977506;28;19926;-63
2021/05/21 07:39:49;;;;;;;6.20;3.72;;;;;;;16.75;60.93;99650.19;4977227;28;20416;-62
2021/05/21 07:42:17;;;;;;;5.25;4.03;;;;;;;16.79;60.68;99646.66;4977207;28;20568;-64
2021/05/21 07:44:49;;;;;;;7.38;4.28;;;;;;;16.87;60.56;99644.69;4977180;28;20062;-63
2021/05/21 07:47:20;;;;;;;7.90;3.85;;;;;;;17.05;60.78;99644.22;4977056;28;20054;-64
2021/05/21 07:49:48;;;;;;;6.20;4.15;;;;;;;17.24;61.13;99634.22;4977118;28;20046;-64
2021/05/21 07:52:18;;;;;;;6.35;3.35;;;;;;;17.51;60.18;99637.75;4976727;28;20061;-64
2021/05/21 07:54:47;;;;;;;6.45;3.30;;;;;;;17.51;60.10;99617.09;4977118;28;20125;-64
2021/05/21 07:57:15;;;;;;;6.18;4.00;;;;;;;17.60;59.39;99624.59;4977268;28;20382;-64
2021/05/21 07:59:44;;;;;;;4.88;3.30;;;;;;;17.69;59.18;99627.75;4976925;28;20397;-64
2021/05/21 08:02:13;;;;;;;7.10;3.70;;;;;;;17.80;59.29;99625.66;4976776;28;20061;-64
2021/05/21 08:04:41;;;;;;;5.27;3.73;;;;;;;18.16;59.32;99623.69;4976887;28;20098;-64
2021/05/21 08:07:10;;;;;;;4.65;3.33;;;;;;;18.35;58.08;99635.13;4975958;28;20405;-64
2021/05/21 08:09:43;;;;;;;4.90;3.40;;;;;;;18.15;56.51;99627.16;4975897;28;20042;-64
2021/05/21 08:12:12;;;;;;;5.85;3.65;;;;;;;18.01;57.17;99624.16;4976547;28;20058;-64
2021/05/21 08:14:40;;;;;;;5.00;3.38;;;;;;;18.11;57.24;99617.81;4976455;28;20039;-64
2021/05/21 08:17:10;;;;;;;4.50;3.13;;;;;;;18.36;56.54;99616.09;4976015;28;20461;-64
2021/05/21 08:19:44;;;;;;;5.25;3.22;;;;;;;18.46;57.13;99612.34;4975893;28;20047;-64
2021/05/21 08:22:13;;;;;;;5.57;2.30;;;;;;;18.40;56.39;99616.88;4959091;28;20070;-63
2021/05/21 08:24:42;;;;;;;3.55;2.30;;;;;;;18.37;55.14;99610.06;4975834;28;20061;-65
2021/05/21 08:27:11;;;;;;;3.75;2.28;;;;;;;18.28;55.07;99602.63;4976348;28;20105;-63
2021/05/21 08:29:39;;;;;;;3.53;2.00;;;;;;;18.60;55.92;99604.97;4976299;28;20063;-63
2021/05/21 08:32:08;;;;;;;3.60;2.50;;;;;;;18.81;55.50;99599.97;4976365;28;20485;-62
2021/05/21 08:34:36;;;;;;;3.08;1.90;;;;;;;18.96;54.77;99586.47;4976518;28;20106;-65
2021/05/21 08:37:06;;;;;;;3.70;2.00;;;;;;;19.14;54.28;99563.38;4976633;28;20066;-63
2021/05/21 08:39:37;;;;;;;3.53;2.60;;;;;;;19.17;52.48;99580.53;4976172;28;20047;-64
2021/05/21 08:42:07;;;;;;;3.95;2.50;;;;;;;19.15;52.66;99582.31;4976150;28;20043;-64
2021/05/21 08:44:38;;;;;;;3.75;1.83;;;;;;;19.05;52.55;99578.38;4976401;28;20077;-63
2021/05/21 08:47:06;;;;;;;2.92;1.92;;;;;;;19.22;52.79;99576.84;4976127;28;20059;-60
2021/05/21 08:49:35;;;;;;;3.47;2.05;;;;;;;19.21;51.88;99571.75;4976129;28;20043;-63
2021/05/21 08:52:03;;;;;;;3.60;1.90;;;;;;;19.36;51.42;99574.59;4975712;28;20482;-63
2021/05/21 08:54:35;;;;;;;2.40;1.60;;;;;;;19.53;50.61;99573.97;4976030;28;20047;-63
2021/05/21 08:57:08;;;;;;;2.63;1.60;;;;;;;19.47;50.70;99566.44;4975856;28;20420;-63
2021/05/21 08:59:38;;;;;;;4.03;1.60;;;;;;;19.43;50.27;99557.13;4975870;28;20046;-63
2021/05/21 09:02:23;;;;;;;3.70;1.60;;;;;;;19.41;50.31;99558.94;4975872;28;20179;-63
2021/05/21 09:04:57;;;;;;;3.60;1.90;;;;;;;19.43;49.36;99545.91;4975986;28;20485;-63
2021/05/21 09:07:31;;;;;;;2.85;1.55;;;;;;;19.39;50.26;99543.44;4975930;28;20082;-63
2021/05/21 09:10:07;;;;;;;3.78;1.88;;;;;;;19.50;50.05;99547.38;4975851;28;20138;-63
2021/05/21 09:12:39;;;;;;;4.88;2.95;;;;;;;19.58;50.30;99545.31;4975705;28;20121;-63
2021/05/21 09:15:14;;;;;;;2.75;1.73;;;;;;;19.64;50.17;99548.50;4975874;28;20058;-63
2021/05/21 09:17:57;;;;;;;2.72;1.50;;;;;;;19.73;49.69;99548.13;4975450;28;20341;-64
2021/05/21 09:20:31;;;;;;;4.03;1.60;;;;;;;19.78;50.23;99543.63;4975522;28;20054;-62
2021/05/21 09:23:05;;;;;;;2.28;1.40;;;;;;;19.76;49.87;99550.59;4975716;28;20050;-64
2021/05/21 09:25:38;;;;;;;2.40;1.25;;;;;;;19.87;48.49;99526.84;4975509;28;20564;-62
2021/05/21 09:28:29;;;;;;;2.28;1.38;;;;;;;20.01;48.34;99540.91;4975391;28;20110;-62
2021/05/21 09:31:10;;;;;;;3.17;1.63;;;;;;;20.08;49.28;99531.97;4975220;28;20466;-63
2021/05/21 09:33:44;;;;;;;2.72;1.30;;;;;;;20.24;48.17;99536.56;4975195;28;20581;-64
2021/05/21 09:36:13;;;;;;;2.30;1.48;;;;;;;20.23;47.52;99529.72;4975137;28;20058;-62
2021/05/21 09:38:45;;;;;;;;;;;;;;;20.08;47.18;99531.16;4975826;28;20042;-63
2021/05/21 09:41:18;;;;;;;3.00;1.40;;;;;;;19.90;46.78;99519.81;4975066;28;19964;-63
2021/05/21 09:43:52;;;;;;;3.85;1.27;;;;;;;20.15;47.66;99513.59;4975214;28;20110;-63
2021/05/21 09:46:26;;;;;;;4.38;1.60;;;;;;;20.31;47.97;99514.66;4975375;28;20058;-63
2021/05/21 09:48:55;;;;;;;3.15;1.60;;;;;;;20.22;48.24;99512.44;4975326;28;20059;-62
2021/05/21 09:51:33;;;;;;;4.07;1.50;;;;;;;20.33;48.32;99505.06;4974861;28;20062;-64
2021/05/21 09:54:05;;;;;;;2.85;1.45;;;;;;;20.51;48.37;99509.47;4975703;28;20473;-63
2021/05/21 09:56:34;;;;;;;3.53;1.60;;;;;;;20.67;47.13;99510.47;4975010;28;20059;-63
2021/05/21 09:59:06;;;;;;;1.87;1.13;;;;;;;20.82;45.79;99514.13;4975239;28;20054;-63
2021/05/21 10:01:38;;;;;;;2.80;1.30;;;;;;;20.73;44.90;99505.03;4975170;28;20433;-62
2021/05/21 10:04:10;;;;;;;2.63;1.10;;;;;;;20.50;45.06;99502.59;4973483;28;20046;-63
2021/05/21 10:06:45;;;;;;;2.53;1.27;;;;;;;20.80;45.97;99501.25;4975188;28;20057;-62
2021/05/21 10:09:17;;;;;;;4.63;1.30;;;;;;;20.79;46.70;99486.56;4975013;28;20508;-62
2021/05/21 10:11:50;;;;;;;2.33;1.23;;;;;;;20.64;46.81;99501.06;4974893;28;20054;-62
2021/05/21 10:14:22;;;;;;;2.80;1.17;;;;;;;20.63;46.75;99498.56;4974978;28;20489;-62
2021/05/21 10:16:57;;;;;;;1.85;1.20;;;;;;;20.70;46.68;99499.97;4975250;28;20065;-61
2021/05/21 10:19:26;;;;;;;2.85;1.58;;;;;;;20.78;46.74;99482.28;4974619;28;20054;-63
2021/05/21 10:21:56;;;;;;;1.98;1.10;;;;;;;20.61;47.30;99474.44;4974823;28;20506;-63
2021/05/21 10:24:30;;;;;;;;;;;;;;;20.82;47.54;99478.66;4975063;28;20051;-63
2021/05/21 10:27:19;;;;;;;2.78;1.45;;;;;;;20.79;47.61;99473.59;4974534;28;20055;-63
2021/05/21 10:29:56;;;;;;;2.08;1.20;;;;;;;20.84;47.70;99470.78;4973006;28;20563;-62
2021/05/21 10:32:30;;;;;;;2.15;1.35;;;;;;;20.81;47.27;99466.59;4972404;28;20374;-62
2021/05/21 10:35:19;;;;;;;2.38;1.40;;;;;;;20.79;48.57;99463.22;4972638;28;20145;-62
2021/05/21 10:38:20;;;;;;;1.90;1.20;;;;;;;20.68;49.05;99465.47;4973192;28;20486;-62
2021/05/21 10:41:13;;;;;;;3.97;1.30;;;;;;;20.83;49.07;99456.97;4972644;28;20445;-63
2021/05/21 10:43:55;;;;;;;2.08;1.40;;;;;;;20.70;48.58;99458.47;4972924;28;20070;-63
2021/05/21 10:46:53;;;;;;;3.15;1.63;;;;;;;20.53;48.24;99463.56;4973897;28;20050;-62
2021/05/21 10:49:26;;;;;;;2.70;1.60;;;;;;;20.54;47.85;99457.44;4976365;28;20141;-63
2021/05/21 10:52:02;;;;;;;2.17;1.33;;;;;;;20.76;48.48;99467.69;4976086;28;20055;-63
2021/05/21 10:54:36;;;;;;;4.57;1.67;;;;;;;21.03;48.14;99469.88;4977707;28;20078;-62
2021/05/21 10:57:13;;;;;;;4.10;1.80;;;;;;;21.22;47.92;99462.94;4978259;28;20518;-62
2021/05/21 10:59:43;;;;;;;2.65;1.60;;;;;;;20.92;47.46;99448.78;4978203;28;20073;-63
2021/05/21 11:02:17;;;;;;;3.45;1.90;;;;;;;20.77;49.28;99465.06;4978066;28;20072;-62
2021/05/21 11:04:46;;;;;;;4.30;1.85;;;;;;;20.68;49.59;99450.72;4978827;28;20084;-63
2021/05/21 11:07:43;;;;;;;3.42;1.77;;;;;;;20.78;50.08;99445.16;4978214;28;20086;-63
2021/05/21 11:10:45;;;;;;;3.00;1.83;;;;;;;20.44;50.37;99446.63;4937569;29;20091;-62
2021/05/21 11:13:16;;;;;;;2.83;1.67;;;;;;;20.23;50.12;99449.38;4939468;28;20078;-63
2021/05/21 11:15:47;;;;;;;3.20;1.67;;;;;;;20.11;50.66;99437.72;4978073;28;20047;-62
2021/05/21 11:18:30;;;;;;;2.83;1.75;;;;;;;20.27;50.83;99438.78;4978634;28;20058;-63
2021/05/21 11:21:07;;;;;;;4.32;1.98;;;;;;;20.10;50.26;99432.63;4977109;28;20098;-63
2021/05/21 11:23:41;;;;;;;3.78;1.95;;;;;;;19.97;52.07;99440.06;4977826;28;20058;-62
2021/05/21 11:26:24;;;;;;;3.75;1.77;;;;;;;20.06;51.04;99427.56;4977816;28;21141;-63
2021/05/21 11:28:56;;;;;;;4.70;2.03;;;;;;;20.05;51.02;99415.53;4978190;28;20058;-63
2021/05/21 11:31:29;;;;;;;2.47;1.52;;;;;;;19.86;51.18;99417.22;4977770;28;20149;-63
2021/05/21 11:34:04;;;;;;;2.83;1.70;;;;;;;19.76;50.74;99405.56;4977593;28;20563;-62
2021/05/21 11:36:38;;;;;;;3.05;1.45;;;;;;;19.67;51.51;99403.38;4977639;28;20410;-63
2021/05/21 11:39:07;;;;;;;2.63;1.40;;;;;;;19.54;52.70;99415.13;4977679;28;20062;-63
2021/05/21 11:41:44;;;;;;;2.17;1.30;;;;;;;19.57;52.39;99419.34;4977571;28;20073;-63
2021/05/21 11:44:17;;;;;;;4.50;1.30;;;;;;;19.55;51.55;99424.59;4977212;28;20114;-62
2021/05/21 11:46:49;;;;;;;2.22;1.23;;;;;;;19.55;51.59;99416.84;4977511;28;20087;-63
2021/05/21 11:49:19;;;;;;;2.28;1.17;;;;;;;19.40;51.11;99407.09;4977419;28;20074;-63
2021/05/21 11:52:06;;;;;;;3.45;1.10;;;;;;;19.36;51.85;99405.53;4917677;29;20060;-62
2021/05/21 11:54:41;;;;;;;1.83;1.00;;;;;;;19.36;52.25;99397.78;4936568;29;20047;-62
2021/05/21 11:57:19;;;;;;;1.33;1.17;;;;;;;19.50;52.77;99398.06;4936837;29;20086;-62